createdAt,value
2022-09-12T04:00:59.889Z,10.89
2022-09-12T04:03:29.227Z,10.83
2022-09-12T04:05:58.811Z,10.82
2022-09-12T04:08:28.166Z,10.80
2022-09-12T04:11:07.800Z,10.80
2022-09-12T04:13:38.169Z,10.83
2022-09-12T04:16:07.706Z,10.83
2022-09-12T04:18:36.595Z,10.85
2022-09-12T04:21:15.958Z,10.89
2022-09-12T04:23:45.897Z,10.89
2022-09-12T04:26:17.879Z,10.89
2022-09-12T04:28:48.340Z,10.88
2022-09-12T04:31:21.186Z,10.89
2022-09-12T04:33:58.817Z,10.90
2022-09-12T04:36:29.422Z,10.92
2022-09-12T04:39:29.295Z,10.93
2022-09-12T04:41:58.708Z,10.94
2022-09-12T04:44:27.644Z,10.95
2022-09-12T04:46:56.438Z,10.98
2022-09-12T04:49:25.961Z,10.99
2022-09-12T04:51:55.528Z,10.99
2022-09-12T04:54:24.755Z,11.00
2022-09-12T04:56:55.182Z,11.02
2022-09-12T04:59:24.437Z,11.04
2022-09-12T05:01:52.983Z,11.09
2022-09-12T05:04:21.934Z,11.13
2022-09-12T05:06:51.053Z,11.16
2022-09-12T05:09:20.108Z,11.16
2022-09-12T05:12:05.758Z,11.17
2022-09-12T05:14:36.664Z,11.23
2022-09-12T05:17:06.904Z,11.30
2022-09-12T05:19:36.097Z,11.34
2022-09-12T05:22:07.248Z,11.38
2022-09-12T05:24:38.447Z,11.36
2022-09-12T05:27:08.130Z,11.32
2022-09-12T05:29:37.474Z,11.33
2022-09-12T05:32:06.723Z,11.33
2022-09-12T05:34:35.844Z,11.34
2022-09-12T05:37:05.621Z,11.45
2022-09-12T05:39:35.154Z,11.54
2022-09-12T05:42:04.999Z,11.70
2022-09-12T05:44:34.285Z,11.88
2022-09-12T05:47:03.902Z,12.10
2022-09-12T05:49:33.276Z,12.17
2022-09-12T05:52:03.698Z,12.18
2022-09-12T05:54:35.031Z,12.18
2022-09-12T05:57:04.305Z,12.16
2022-09-12T05:59:33.500Z,12.21
2022-09-12T06:02:02.592Z,12.26
2022-09-12T06:04:32.028Z,12.33
2022-09-12T06:07:01.382Z,12.54
2022-09-12T06:09:30.630Z,12.83
2022-09-12T06:11:59.918Z,14.11
2022-09-12T06:14:29.321Z,15.23
2022-09-12T06:16:58.582Z,15.65
2022-09-12T06:19:28.897Z,15.64
2022-09-12T06:21:58.393Z,15.60
2022-09-12T06:24:27.972Z,15.50
2022-09-12T06:26:56.951Z,15.32
2022-09-12T06:29:26.697Z,15.09
2022-09-12T06:31:55.872Z,14.89
2022-09-12T06:34:27.888Z,14.70
2022-09-12T06:36:57.159Z,14.56
2022-09-12T06:39:26.057Z,14.45
2022-09-12T06:41:55.752Z,14.39
2022-09-12T06:44:36.020Z,14.35
2022-09-12T06:47:04.820Z,14.31
2022-09-12T06:49:34.038Z,14.27
2022-09-12T06:52:03.036Z,14.26
2022-09-12T06:54:32.181Z,14.28
2022-09-12T06:57:01.815Z,14.29
2022-09-12T06:59:30.934Z,14.32
2022-09-12T07:02:00.092Z,14.32
2022-09-12T07:04:30.003Z,14.34
2022-09-12T07:06:58.681Z,14.42
2022-09-12T07:09:28.058Z,14.50
2022-09-12T07:11:57.496Z,14.53
2022-09-12T07:14:26.599Z,14.59
2022-09-12T07:16:55.848Z,14.65
2022-09-12T07:19:25.126Z,14.77
2022-09-12T07:21:58.437Z,14.86
2022-09-12T07:24:28.398Z,14.91
2022-09-12T07:26:58.027Z,14.98
2022-09-12T07:29:42.374Z,15.04
2022-09-12T07:32:12.735Z,15.09
2022-09-12T07:34:42.012Z,15.22
2022-09-12T07:37:11.370Z,15.30
2022-09-12T07:39:40.735Z,15.37
2022-09-12T07:42:10.372Z,15.47
2022-09-12T07:44:40.607Z,15.54
2022-09-12T07:47:09.770Z,15.59
2022-09-12T07:49:39.151Z,15.64
2022-09-12T07:52:08.572Z,15.68
2022-09-12T07:54:38.023Z,15.76
2022-09-12T07:57:07.422Z,15.85
2022-09-12T07:59:52.412Z,15.94
2022-09-12T08:02:23.942Z,16.00
2022-09-12T08:04:53.466Z,16.03
2022-09-12T08:07:23.006Z,16.09
2022-09-12T08:09:54.150Z,16.17
2022-09-12T08:12:23.639Z,16.35
2022-09-12T08:14:53.197Z,16.52
2022-09-12T08:17:22.627Z,16.66
2022-09-12T08:19:51.835Z,16.77
2022-09-12T08:22:22.717Z,16.89
2022-09-12T08:24:52.146Z,16.96
2022-09-12T08:27:21.372Z,16.99
2022-09-12T08:29:51.063Z,17.04
2022-09-12T08:32:20.393Z,17.14
2022-09-12T08:34:50.125Z,17.26
2022-09-12T08:37:20.647Z,17.43
2022-09-12T08:39:50.227Z,17.51
2022-09-12T08:42:55.737Z,17.48
2022-09-12T08:45:47.147Z,17.49
2022-09-12T08:48:16.836Z,17.46
2022-09-12T08:50:49.976Z,17.55
2022-09-12T08:53:25.012Z,17.67
2022-09-12T08:55:59.778Z,17.61
2022-09-12T08:58:30.074Z,17.51
2022-09-12T09:01:17.441Z,17.56
2022-09-12T09:03:56.930Z,17.59
2022-09-12T09:06:33.916Z,17.60
2022-09-12T09:09:32.286Z,17.57
2022-09-12T09:12:16.202Z,17.50
2022-09-12T09:15:05.972Z,17.56
2022-09-12T09:17:43.577Z,17.66
2022-09-12T09:20:33.944Z,17.73
2022-09-12T09:23:18.129Z,17.86
2022-09-12T09:25:59.383Z,17.97
2022-09-12T09:28:43.096Z,18.01
2022-09-12T09:31:22.409Z,18.04
2022-09-12T09:33:55.931Z,18.02
2022-09-12T09:36:46.690Z,18.06
2022-09-12T09:39:17.080Z,18.14
2022-09-12T09:41:49.112Z,18.24
2022-09-12T09:44:19.316Z,18.17
2022-09-12T09:46:54.642Z,18.08
2022-09-12T09:49:26.437Z,18.04
2022-09-12T09:51:58.863Z,18.02
2022-09-12T09:54:42.831Z,17.93
2022-09-12T09:57:37.482Z,17.76
2022-09-12T10:00:28.273Z,17.69
2022-09-12T10:03:30.110Z,17.76
2022-09-12T10:06:08.160Z,17.93
2022-09-12T10:08:39.285Z,18.06
2022-09-12T10:11:20.177Z,18.19
2022-09-12T10:13:54.841Z,18.38
2022-09-12T10:16:30.241Z,18.52
2022-09-12T10:19:04.593Z,18.56
2022-09-12T10:21:46.756Z,18.52
2022-09-12T10:24:15.955Z,18.51
2022-09-12T10:27:00.005Z,18.50
2022-09-12T10:29:33.211Z,18.52
2022-09-12T10:32:07.321Z,18.61
2022-09-12T10:34:41.289Z,18.63
2022-09-12T10:37:19.053Z,18.68
2022-09-12T10:39:57.876Z,18.71
2022-09-12T10:42:47.437Z,18.71
2022-09-12T10:45:37.933Z,18.71
2022-09-12T10:48:29.945Z,18.76
2022-09-12T10:51:00.995Z,18.75
2022-09-12T10:53:41.065Z,18.72
2022-09-12T10:56:13.434Z,18.70
2022-09-12T10:58:52.592Z,18.74
2022-09-12T11:01:30.892Z,18.81
2022-09-12T11:04:10.955Z,18.88
2022-09-12T11:06:54.122Z,18.95
2022-09-12T11:09:42.871Z,18.97
2022-09-12T11:12:41.693Z,18.93
2022-09-12T11:15:26.060Z,18.85
2022-09-12T11:17:59.718Z,18.79
2022-09-12T11:20:34.320Z,18.79
2022-09-12T11:23:12.023Z,18.87
2022-09-12T11:25:57.645Z,19.00
2022-09-12T11:28:47.375Z,19.02
2022-09-12T11:31:35.999Z,19.04
2022-09-12T11:34:11.111Z,19.01
2022-09-12T11:36:46.704Z,19.07
2022-09-12T11:39:43.795Z,19.10
2022-09-12T11:42:26.879Z,19.07
2022-09-12T11:45:19.460Z,19.05
2022-09-12T11:47:55.154Z,19.02
2022-09-12T11:50:30.178Z,19.04
2022-09-12T11:53:25.354Z,19.09
2022-09-12T11:56:02.865Z,19.07
2022-09-12T11:58:32.019Z,19.02
2022-09-12T12:01:28.154Z,18.92
2022-09-12T12:03:58.367Z,18.79
2022-09-12T12:06:47.865Z,18.79
2022-09-12T12:09:18.319Z,18.82
2022-09-12T12:11:58.407Z,18.86
2022-09-12T12:14:46.174Z,18.81
2022-09-12T12:17:22.238Z,18.74
2022-09-12T12:20:06.508Z,18.71
2022-09-12T12:22:38.368Z,18.82
2022-09-12T12:25:15.428Z,19.02
2022-09-12T12:27:54.668Z,19.21
2022-09-12T12:30:30.406Z,19.31
2022-09-12T12:33:01.363Z,19.34
2022-09-12T12:35:37.522Z,19.31
2022-09-12T12:38:28.349Z,19.19
2022-09-12T12:41:24.577Z,19.10
2022-09-12T12:43:57.138Z,19.11
2022-09-12T12:46:30.607Z,19.17
2022-09-12T12:49:06.043Z,19.28
2022-09-12T12:51:50.819Z,19.36
2022-09-12T12:54:51.548Z,19.34
2022-09-12T12:57:47.390Z,19.25
2022-09-12T13:00:25.877Z,19.23
2022-09-12T13:03:00.929Z,19.17
2022-09-12T13:05:39.245Z,19.03
2022-09-12T13:08:17.736Z,18.98
2022-09-12T13:10:54.644Z,19.00
2022-09-12T13:13:29.759Z,18.95
2022-09-12T13:15:59.392Z,18.88
2022-09-12T13:18:46.311Z,18.87
2022-09-12T13:21:23.680Z,18.86
2022-09-12T13:24:13.971Z,18.78
2022-09-12T13:26:48.362Z,18.73
2022-09-12T13:29:20.305Z,18.74
2022-09-12T13:31:56.713Z,18.71
2022-09-12T13:34:32.099Z,18.68
2022-09-12T13:37:19.508Z,18.62
2022-09-12T13:39:53.496Z,18.62
2022-09-12T13:42:45.417Z,18.59
2022-09-12T13:45:27.986Z,18.58
2022-09-12T13:48:02.393Z,18.64
2022-09-12T13:50:39.505Z,18.62
2022-09-12T13:53:16.703Z,18.64
2022-09-12T13:56:01.156Z,18.70
2022-09-12T13:58:37.376Z,18.64
2022-09-12T14:01:08.307Z,18.60
2022-09-12T14:04:12.933Z,18.56
2022-09-12T14:06:50.529Z,18.43
2022-09-12T14:09:30.247Z,18.27
2022-09-12T14:11:59.454Z,18.20
2022-09-12T14:14:34.293Z,18.17
2022-09-12T14:17:35.903Z,18.18
2022-09-12T14:20:12.207Z,18.13
2022-09-12T14:22:41.995Z,18.07
2022-09-12T14:25:26.129Z,18.09
2022-09-12T14:27:57.585Z,18.15
2022-09-12T14:30:32.165Z,18.17
2022-09-12T14:33:13.121Z,18.16
2022-09-12T14:35:45.896Z,18.14
2022-09-12T14:38:17.762Z,18.15
2022-09-12T14:40:56.589Z,18.16
2022-09-12T14:43:29.056Z,18.11
2022-09-12T14:46:02.259Z,18.04
2022-09-12T14:48:37.157Z,17.99
2022-09-12T14:51:07.191Z,17.98
2022-09-12T14:53:38.535Z,17.95
2022-09-12T14:56:14.586Z,17.91
2022-09-12T14:58:43.969Z,17.89
2022-09-12T15:01:13.406Z,17.91
2022-09-12T15:03:47.272Z,17.96
2022-09-12T15:06:32.264Z,18.01
2022-09-12T15:09:07.357Z,18.04
2022-09-12T15:11:36.673Z,18.04
2022-09-12T15:14:16.509Z,18.03
2022-09-12T15:16:46.144Z,18.05
2022-09-12T15:19:15.322Z,18.08
2022-09-12T15:21:43.980Z,18.10
2022-09-12T15:24:13.287Z,18.06
2022-09-12T15:26:42.629Z,18.02
2022-09-12T15:29:12.085Z,17.99
2022-09-12T15:31:41.907Z,17.97
2022-09-12T15:34:11.220Z,17.92
2022-09-12T15:36:40.777Z,17.90
2022-09-12T15:39:12.299Z,17.89
2022-09-12T15:41:41.787Z,17.88
2022-09-12T15:44:13.799Z,17.88
2022-09-12T15:46:43.285Z,17.86
2022-09-12T15:49:12.931Z,17.85
2022-09-12T15:51:43.085Z,17.88
2022-09-12T15:54:14.981Z,17.85
2022-09-12T15:56:44.764Z,17.85
2022-09-12T15:59:14.020Z,17.84
2022-09-12T16:01:43.642Z,17.80
2022-09-12T16:04:32.706Z,17.71
2022-09-12T16:07:02.189Z,17.58
2022-09-12T16:09:31.595Z,17.48
2022-09-12T16:12:00.852Z,17.40
2022-09-12T16:14:30.305Z,17.36
2022-09-12T16:16:59.728Z,17.28
2022-09-12T16:19:29.422Z,17.22
2022-09-12T16:21:58.915Z,17.16
2022-09-12T16:24:28.359Z,17.12
2022-09-12T16:27:01.172Z,17.07
2022-09-12T16:29:31.659Z,17.00
2022-09-12T16:32:01.040Z,16.95
2022-09-12T16:34:30.182Z,16.88
2022-09-12T16:37:00.299Z,16.82
2022-09-12T16:39:29.731Z,16.77
2022-09-12T16:41:58.961Z,16.72
2022-09-12T16:44:28.312Z,16.68
2022-09-12T16:46:57.956Z,16.65
2022-09-12T16:49:27.087Z,16.61
2022-09-12T16:51:56.280Z,16.58
2022-09-12T16:54:25.620Z,16.55
2022-09-12T16:56:55.024Z,16.51
2022-09-12T16:59:25.277Z,16.47
2022-09-12T17:01:54.910Z,16.39
2022-09-12T17:04:23.853Z,16.34
2022-09-12T17:06:53.044Z,16.26
2022-09-12T17:09:22.865Z,16.23
2022-09-12T17:11:53.985Z,16.21
2022-09-12T17:14:24.226Z,16.18
2022-09-12T17:16:54.040Z,16.16
2022-09-12T17:19:27.284Z,16.13
2022-09-12T17:21:58.059Z,16.10
2022-09-12T17:24:27.506Z,16.06
2022-09-12T17:26:57.841Z,15.99
2022-09-12T17:29:27.334Z,15.94
2022-09-12T17:31:56.843Z,15.89
2022-09-12T17:34:26.282Z,15.84
2022-09-12T17:36:55.648Z,15.80
2022-09-12T17:39:25.546Z,15.75
2022-09-12T17:41:58.343Z,15.70
2022-09-12T17:44:31.123Z,15.64
2022-09-12T17:47:00.747Z,15.58
2022-09-12T17:49:31.994Z,15.54
2022-09-12T17:52:02.631Z,15.51
2022-09-12T17:54:32.124Z,15.44
2022-09-12T17:57:01.375Z,15.41
2022-09-12T17:59:30.921Z,15.38
2022-09-12T18:02:16.952Z,15.33
2022-09-12T18:04:47.525Z,15.24
2022-09-12T18:07:19.437Z,15.15
2022-09-12T18:09:51.464Z,15.11
2022-09-12T18:12:20.850Z,15.06
2022-09-12T18:14:50.437Z,15.02
2022-09-12T18:17:20.033Z,14.98
2022-09-12T18:19:53.474Z,14.97
2022-09-12T18:22:23.554Z,14.92
2022-09-12T18:24:52.785Z,14.89
2022-09-12T18:27:22.063Z,14.85
2022-09-12T18:30:10.406Z,14.75
2022-09-12T18:32:42.416Z,14.68
2022-09-12T18:35:12.821Z,14.64
2022-09-12T18:37:43.329Z,14.60
2022-09-12T18:40:12.753Z,14.54
2022-09-12T18:42:42.229Z,14.47
2022-09-12T18:45:11.802Z,14.39
2022-09-12T18:47:43.215Z,14.30
2022-09-12T18:50:12.466Z,14.23
2022-09-12T18:52:41.750Z,14.17
2022-09-12T18:55:11.682Z,14.14
2022-09-12T18:57:42.668Z,14.09
2022-09-12T19:00:14.179Z,14.05
2022-09-12T19:02:43.861Z,14.02
2022-09-12T19:05:13.271Z,13.97
2022-09-12T19:07:42.758Z,13.92
2022-09-12T19:10:12.623Z,13.89
2022-09-12T19:12:42.773Z,13.87
2022-09-12T19:15:11.775Z,13.80
2022-09-12T19:17:40.395Z,13.75
2022-09-12T19:20:09.860Z,13.72
2022-09-12T19:22:38.717Z,13.69
2022-09-12T19:25:08.182Z,13.68
2022-09-12T19:27:37.114Z,13.67
2022-09-12T19:30:06.157Z,13.63
2022-09-12T19:32:35.505Z,13.58
2022-09-12T19:35:05.428Z,13.54
2022-09-12T19:37:34.377Z,13.51
2022-09-12T19:40:04.572Z,13.49
2022-09-12T19:42:34.289Z,13.47
2022-09-12T19:45:03.169Z,13.44
2022-09-12T19:47:31.664Z,13.41
2022-09-12T19:50:00.473Z,13.37
2022-09-12T19:52:29.576Z,13.34
2022-09-12T19:54:58.372Z,13.32
2022-09-12T19:57:27.316Z,13.30
2022-09-12T19:59:56.519Z,13.25
2022-09-12T20:02:28.307Z,13.21
2022-09-12T20:04:57.478Z,13.15
2022-09-12T20:07:26.901Z,13.12
2022-09-12T20:09:55.854Z,13.09
2022-09-12T20:12:24.880Z,13.06
2022-09-12T20:14:53.360Z,13.02
2022-09-12T20:17:21.849Z,12.97
2022-09-12T20:19:51.135Z,12.87
2022-09-12T20:22:19.758Z,12.79
2022-09-12T20:24:48.469Z,12.74
2022-09-12T20:27:16.907Z,12.70
2022-09-12T20:29:46.818Z,12.69
2022-09-12T20:32:15.348Z,12.67
2022-09-12T20:34:44.088Z,12.66
2022-09-12T20:37:13.138Z,12.65
2022-09-12T20:39:42.068Z,12.64
2022-09-12T20:42:10.618Z,12.60
2022-09-12T20:44:39.682Z,12.57
2022-09-12T20:47:08.849Z,12.57
2022-09-12T20:49:38.068Z,12.53
2022-09-12T20:52:07.765Z,12.53
2022-09-12T20:54:36.710Z,12.52
2022-09-12T20:57:06.012Z,12.49
2022-09-12T20:59:35.581Z,12.47
2022-09-12T21:02:04.618Z,12.44
2022-09-12T21:04:34.008Z,12.40
2022-09-12T21:07:03.344Z,12.38
2022-09-12T21:09:32.720Z,12.37
2022-09-12T21:12:01.224Z,12.37
2022-09-12T21:14:29.717Z,12.36
2022-09-12T21:16:58.375Z,12.34
2022-09-12T21:19:27.460Z,12.32
2022-09-12T21:21:56.101Z,12.29
2022-09-12T21:24:25.033Z,12.25
2022-09-12T21:26:53.959Z,12.24
2022-09-12T21:29:22.366Z,12.24
2022-09-12T21:31:51.897Z,12.24
2022-09-12T21:34:20.770Z,12.23
2022-09-12T21:36:49.906Z,12.22
2022-09-12T21:39:19.158Z,12.18
2022-09-12T21:41:48.441Z,12.15
2022-09-12T21:44:17.577Z,12.14
2022-09-12T21:46:47.046Z,12.12
2022-09-12T21:49:15.587Z,12.08
2022-09-12T21:51:44.906Z,12.07
2022-09-12T21:54:14.334Z,12.05
2022-09-12T21:56:43.228Z,12.03
2022-09-12T21:59:12.292Z,12.02
2022-09-12T22:01:41.551Z,11.99
2022-09-12T22:04:11.661Z,11.97
2022-09-12T22:06:40.971Z,11.95
2022-09-12T22:09:10.104Z,11.95
2022-09-12T22:11:39.320Z,11.94
2022-09-12T22:14:08.530Z,11.91
2022-09-12T22:16:37.864Z,11.88
2022-09-12T22:19:07.101Z,11.83
2022-09-12T22:21:56.437Z,11.81
2022-09-12T22:24:28.985Z,11.79
2022-09-12T22:26:59.952Z,11.75
2022-09-12T22:29:29.352Z,11.69
2022-09-12T22:32:00.398Z,11.63
2022-09-12T22:34:30.201Z,11.61
2022-09-12T22:36:59.757Z,11.58
2022-09-12T22:39:29.156Z,11.56
2022-09-12T22:41:58.978Z,11.56
2022-09-12T22:44:28.395Z,11.55
2022-09-12T22:46:57.648Z,11.53
2022-09-12T22:49:26.030Z,11.51
2022-09-12T22:51:55.123Z,11.50
2022-09-12T22:54:24.203Z,11.50
2022-09-12T22:56:53.555Z,11.48
2022-09-12T22:59:22.549Z,11.46
